sensor_id;sensor_type;location;lat;lon;timestamp;P1;durP1;ratioP1;P2;durP2;ratioP2
7659;SDS011;3872;47.902;8.162;2023-09-30T00:01:40;13.70;;;3.63;;
7659;SDS011;3872;47.902;8.162;2023-09-30T00:04:06;10.80;;;3.90;;
7659;SDS011;3872;47.902;8.162;2023-09-30T00:06:35;14.30;;;4.27;;
7659;SDS011;3872;47.902;8.162;2023-09-30T00:09:02;13.17;;;3.60;;
7659;SDS011;3872;47.902;8.162;2023-09-30T00:11:30;11.60;;;3.13;;
7659;SDS011;3872;47.902;8.162;2023-09-30T00:13:57;10.63;;;4.00;;
7659;SDS011;3872;47.902;8.162;2023-09-30T00:16:23;8.67;;;2.80;;
7659;SDS011;3872;47.902;8.162;2023-09-30T00:18:50;10.90;;;3.43;;
7659;SDS011;3872;47.902;8.162;2023-09-30T00:21:18;11.30;;;3.40;;
7659;SDS011;3872;47.902;8.162;2023-09-30T00:23:46;14.47;;;3.60;;
7659;SDS011;3872;47.902;8.162;2023-09-30T00:26:13;16.10;;;4.03;;
7659;SDS011;3872;47.902;8.162;2023-09-30T00:28:41;12.07;;;3.40;;
7659;SDS011;3872;47.902;8.162;2023-09-30T00:31:08;18.63;;;3.63;;
7659;SDS011;3872;47.902;8.162;2023-09-30T00:33:35;11.77;;;3.70;;
7659;SDS011;3872;47.902;8.162;2023-09-30T00:36:05;9.63;;;3.03;;
7659;SDS011;3872;47.902;8.162;2023-09-30T00:38:33;12.10;;;3.50;;
7659;SDS011;3872;47.902;8.162;2023-09-30T00:41:01;11.77;;;3.50;;
7659;SDS011;3872;47.902;8.162;2023-09-30T00:43:27;8.90;;;3.13;;
7659;SDS011;3872;47.902;8.162;2023-09-30T00:45:57;9.00;;;3.20;;
7659;SDS011;3872;47.902;8.162;2023-09-30T00:48:31;9.83;;;3.80;;
7659;SDS011;3872;47.902;8.162;2023-09-30T00:50:58;11.80;;;3.50;;
7659;SDS011;3872;47.902;8.162;2023-09-30T00:53:25;11.30;;;3.00;;
7659;SDS011;3872;47.902;8.162;2023-09-30T00:55:52;7.73;;;2.97;;
7659;SDS011;3872;47.902;8.162;2023-09-30T00:58:23;11.07;;;2.67;;
7659;SDS011;3872;47.902;8.162;2023-09-30T01:00:53;11.67;;;3.90;;
7659;SDS011;3872;47.902;8.162;2023-09-30T01:03:22;8.27;;;3.23;;
7659;SDS011;3872;47.902;8.162;2023-09-30T01:05:49;11.13;;;4.33;;
7659;SDS011;3872;47.902;8.162;2023-09-30T01:08:16;12.33;;;3.60;;
7659;SDS011;3872;47.902;8.162;2023-09-30T01:10:42;12.60;;;2.77;;
7659;SDS011;3872;47.902;8.162;2023-09-30T01:13:10;11.87;;;2.90;;
7659;SDS011;3872;47.902;8.162;2023-09-30T01:15:38;11.83;;;3.03;;
7659;SDS011;3872;47.902;8.162;2023-09-30T01:18:04;11.37;;;2.97;;
7659;SDS011;3872;47.902;8.162;2023-09-30T01:20:31;7.50;;;2.50;;
7659;SDS011;3872;47.902;8.162;2023-09-30T01:22:59;8.10;;;2.67;;
7659;SDS011;3872;47.902;8.162;2023-09-30T01:25:28;8.97;;;2.40;;
7659;SDS011;3872;47.902;8.162;2023-09-30T01:27:55;9.07;;;3.23;;
7659;SDS011;3872;47.902;8.162;2023-09-30T01:30:22;13.70;;;3.10;;
7659;SDS011;3872;47.902;8.162;2023-09-30T01:32:49;9.53;;;3.43;;
7659;SDS011;3872;47.902;8.162;2023-09-30T01:35:15;11.07;;;3.37;;
7659;SDS011;3872;47.902;8.162;2023-09-30T01:37:42;8.63;;;3.13;;
7659;SDS011;3872;47.902;8.162;2023-09-30T01:40:10;9.33;;;3.27;;
7659;SDS011;3872;47.902;8.162;2023-09-30T01:42:37;9.60;;;3.00;;
7659;SDS011;3872;47.902;8.162;2023-09-30T01:45:04;13.83;;;3.63;;
7659;SDS011;3872;47.902;8.162;2023-09-30T01:47:31;10.40;;;3.03;;
7659;SDS011;3872;47.902;8.162;2023-09-30T01:49:57;11.73;;;3.30;;
7659;SDS011;3872;47.902;8.162;2023-09-30T01:52:24;12.63;;;3.43;;
7659;SDS011;3872;47.902;8.162;2023-09-30T01:54:51;10.27;;;3.47;;
7659;SDS011;3872;47.902;8.162;2023-09-30T01:57:21;12.20;;;3.60;;
7659;SDS011;3872;47.902;8.162;2023-09-30T01:59:48;15.80;;;3.10;;
7659;SDS011;3872;47.902;8.162;2023-09-30T02:02:15;11.07;;;3.77;;
7659;SDS011;3872;47.902;8.162;2023-09-30T02:04:42;11.17;;;3.40;;
7659;SDS011;3872;47.902;8.162;2023-09-30T02:07:08;12.83;;;3.33;;
7659;SDS011;3872;47.902;8.162;2023-09-30T02:09:35;10.00;;;3.37;;
7659;SDS011;3872;47.902;8.162;2023-09-30T02:12:02;11.20;;;3.70;;
7659;SDS011;3872;47.902;8.162;2023-09-30T02:14:30;11.10;;;2.90;;
7659;SDS011;3872;47.902;8.162;2023-09-30T02:16:57;9.57;;;4.40;;
7659;SDS011;3872;47.902;8.162;2023-09-30T02:19:24;6.63;;;2.70;;
7659;SDS011;3872;47.902;8.162;2023-09-30T02:21:56;7.97;;;2.70;;
7659;SDS011;3872;47.902;8.162;2023-09-30T02:24:24;6.57;;;2.70;;
7659;SDS011;3872;47.902;8.162;2023-09-30T02:26:50;10.30;;;3.07;;
7659;SDS011;3872;47.902;8.162;2023-09-30T02:29:17;8.30;;;2.90;;
7659;SDS011;3872;47.902;8.162;2023-09-30T02:31:46;11.10;;;3.20;;
7659;SDS011;3872;47.902;8.162;2023-09-30T02:34:13;7.97;;;2.57;;
7659;SDS011;3872;47.902;8.162;2023-09-30T02:36:40;12.50;;;2.97;;
7659;SDS011;3872;47.902;8.162;2023-09-30T02:39:07;8.77;;;3.40;;
7659;SDS011;3872;47.902;8.162;2023-09-30T02:41:34;9.47;;;2.30;;
7659;SDS011;3872;47.902;8.162;2023-09-30T02:44:01;11.47;;;3.33;;
7659;SDS011;3872;47.902;8.162;2023-09-30T02:46:27;7.30;;;2.90;;
7659;SDS011;3872;47.902;8.162;2023-09-30T02:48:55;7.73;;;2.90;;
7659;SDS011;3872;47.902;8.162;2023-09-30T02:51:22;11.10;;;3.27;;
7659;SDS011;3872;47.902;8.162;2023-09-30T02:53:48;7.63;;;2.43;;
7659;SDS011;3872;47.902;8.162;2023-09-30T02:56:15;12.73;;;3.00;;
7659;SDS011;3872;47.902;8.162;2023-09-30T02:58:41;11.03;;;3.00;;
7659;SDS011;3872;47.902;8.162;2023-09-30T03:01:08;6.87;;;2.60;;
7659;SDS011;3872;47.902;8.162;2023-09-30T03:03:35;10.13;;;3.07;;
7659;SDS011;3872;47.902;8.162;2023-09-30T03:06:05;8.03;;;2.73;;
7659;SDS011;3872;47.902;8.162;2023-09-30T03:08:31;9.73;;;3.70;;
7659;SDS011;3872;47.902;8.162;2023-09-30T03:11:00;10.30;;;3.30;;
7659;SDS011;3872;47.902;8.162;2023-09-30T03:13:27;12.47;;;3.47;;
7659;SDS011;3872;47.902;8.162;2023-09-30T03:15:53;6.33;;;2.47;;
7659;SDS011;3872;47.902;8.162;2023-09-30T03:18:21;9.10;;;3.23;;
7659;SDS011;3872;47.902;8.162;2023-09-30T03:20:51;7.67;;;2.77;;
7659;SDS011;3872;47.902;8.162;2023-09-30T03:23:22;10.00;;;2.67;;
7659;SDS011;3872;47.902;8.162;2023-09-30T03:25:55;11.40;;;3.00;;
7659;SDS011;3872;47.902;8.162;2023-09-30T03:28:22;9.93;;;3.00;;
7659;SDS011;3872;47.902;8.162;2023-09-30T03:30:49;9.73;;;3.17;;
7659;SDS011;3872;47.902;8.162;2023-09-30T03:33:15;7.87;;;2.23;;
7659;SDS011;3872;47.902;8.162;2023-09-30T03:35:42;6.70;;;2.50;;
7659;SDS011;3872;47.902;8.162;2023-09-30T03:38:09;8.10;;;2.60;;
7659;SDS011;3872;47.902;8.162;2023-09-30T03:40:39;8.00;;;2.60;;
7659;SDS011;3872;47.902;8.162;2023-09-30T03:43:10;11.73;;;4.30;;
7659;SDS011;3872;47.902;8.162;2023-09-30T03:45:36;9.00;;;3.00;;
7659;SDS011;3872;47.902;8.162;2023-09-30T03:48:04;9.50;;;2.93;;
7659;SDS011;3872;47.902;8.162;2023-09-30T03:50:31;9.73;;;2.93;;
7659;SDS011;3872;47.902;8.162;2023-09-30T03:53:00;15.80;;;4.17;;
7659;SDS011;3872;47.902;8.162;2023-09-30T03:55:27;11.60;;;3.47;;
7659;SDS011;3872;47.902;8.162;2023-09-30T03:57:56;8.77;;;2.87;;
7659;SDS011;3872;47.902;8.162;2023-09-30T04:00:22;9.50;;;2.90;;
7659;SDS011;3872;47.902;8.162;2023-09-30T04:02:49;8.70;;;2.80;;
7659;SDS011;3872;47.902;8.162;2023-09-30T04:05:19;5.93;;;2.70;;
7659;SDS011;3872;47.902;8.162;2023-09-30T04:07:54;11.57;;;2.90;;
7659;SDS011;3872;47.902;8.162;2023-09-30T04:10:20;7.50;;;2.70;;
7659;SDS011;3872;47.902;8.162;2023-09-30T04:12:47;8.57;;;2.70;;
7659;SDS011;3872;47.902;8.162;2023-09-30T04:15:15;8.80;;;3.30;;
7659;SDS011;3872;47.902;8.162;2023-09-30T04:17:42;6.63;;;2.60;;
7659;SDS011;3872;47.902;8.162;2023-09-30T04:20:08;7.00;;;2.37;;
7659;SDS011;3872;47.902;8.162;2023-09-30T04:22:35;20.57;;;3.07;;
7659;SDS011;3872;47.902;8.162;2023-09-30T04:25:02;7.93;;;2.70;;
7659;SDS011;3872;47.902;8.162;2023-09-30T04:27:31;9.23;;;3.30;;
7659;SDS011;3872;47.902;8.162;2023-09-30T04:29:57;9.53;;;3.23;;
7659;SDS011;3872;47.902;8.162;2023-09-30T04:32:26;10.23;;;3.00;;
7659;SDS011;3872;47.902;8.162;2023-09-30T04:34:53;8.57;;;3.23;;
7659;SDS011;3872;47.902;8.162;2023-09-30T04:37:20;11.60;;;2.80;;
7659;SDS011;3872;47.902;8.162;2023-09-30T04:39:46;13.23;;;3.10;;
7659;SDS011;3872;47.902;8.162;2023-09-30T04:42:13;9.30;;;3.20;;
7659;SDS011;3872;47.902;8.162;2023-09-30T04:44:40;8.93;;;2.93;;
7659;SDS011;3872;47.902;8.162;2023-09-30T04:47:06;12.80;;;2.60;;
7659;SDS011;3872;47.902;8.162;2023-09-30T04:49:34;14.73;;;3.00;;
7659;SDS011;3872;47.902;8.162;2023-09-30T04:52:01;9.80;;;3.10;;
7659;SDS011;3872;47.902;8.162;2023-09-30T04:54:27;11.37;;;3.63;;
7659;SDS011;3872;47.902;8.162;2023-09-30T04:56:55;9.10;;;2.70;;
7659;SDS011;3872;47.902;8.162;2023-09-30T04:59:21;11.63;;;2.87;;
7659;SDS011;3872;47.902;8.162;2023-09-30T05:01:50;11.33;;;3.03;;
7659;SDS011;3872;47.902;8.162;2023-09-30T05:04:16;9.30;;;3.10;;
7659;SDS011;3872;47.902;8.162;2023-09-30T05:06:44;11.90;;;3.57;;
7659;SDS011;3872;47.902;8.162;2023-09-30T05:09:11;12.83;;;3.37;;
7659;SDS011;3872;47.902;8.162;2023-09-30T05:11:38;10.80;;;2.77;;
7659;SDS011;3872;47.902;8.162;2023-09-30T05:14:04;6.37;;;2.23;;
7659;SDS011;3872;47.902;8.162;2023-09-30T05:16:31;17.13;;;2.90;;
7659;SDS011;3872;47.902;8.162;2023-09-30T05:18:57;11.87;;;3.50;;
7659;SDS011;3872;47.902;8.162;2023-09-30T05:21:24;7.03;;;2.77;;
7659;SDS011;3872;47.902;8.162;2023-09-30T05:23:53;20.90;;;3.60;;
7659;SDS011;3872;47.902;8.162;2023-09-30T05:26:19;8.10;;;2.97;;
7659;SDS011;3872;47.902;8.162;2023-09-30T05:28:46;11.20;;;2.50;;
7659;SDS011;3872;47.902;8.162;2023-09-30T05:31:12;7.70;;;3.00;;
7659;SDS011;3872;47.902;8.162;2023-09-30T05:33:39;10.27;;;3.47;;
7659;SDS011;3872;47.902;8.162;2023-09-30T05:36:05;9.03;;;3.10;;
7659;SDS011;3872;47.902;8.162;2023-09-30T05:38:32;11.33;;;2.97;;
7659;SDS011;3872;47.902;8.162;2023-09-30T05:41:00;11.70;;;3.37;;
7659;SDS011;3872;47.902;8.162;2023-09-30T05:43:27;9.23;;;3.30;;
7659;SDS011;3872;47.902;8.162;2023-09-30T05:45:54;11.23;;;2.80;;
7659;SDS011;3872;47.902;8.162;2023-09-30T05:48:21;10.33;;;3.83;;
7659;SDS011;3872;47.902;8.162;2023-09-30T05:50:48;9.47;;;3.20;;
7659;SDS011;3872;47.902;8.162;2023-09-30T05:53:14;11.60;;;3.20;;
7659;SDS011;3872;47.902;8.162;2023-09-30T05:55:42;12.37;;;3.37;;
7659;SDS011;3872;47.902;8.162;2023-09-30T05:58:13;10.87;;;2.40;;
7659;SDS011;3872;47.902;8.162;2023-09-30T06:00:41;11.47;;;3.10;;
7659;SDS011;3872;47.902;8.162;2023-09-30T06:03:08;7.20;;;2.77;;
7659;SDS011;3872;47.902;8.162;2023-09-30T06:05:38;9.93;;;3.10;;
7659;SDS011;3872;47.902;8.162;2023-09-30T06:08:06;8.23;;;2.70;;
7659;SDS011;3872;47.902;8.162;2023-09-30T06:10:35;6.30;;;2.60;;
7659;SDS011;3872;47.902;8.162;2023-09-30T06:13:03;7.90;;;3.00;;
7659;SDS011;3872;47.902;8.162;2023-09-30T06:15:31;11.80;;;3.50;;
7659;SDS011;3872;47.902;8.162;2023-09-30T06:17:57;9.23;;;2.83;;
7659;SDS011;3872;47.902;8.162;2023-09-30T06:20:25;9.50;;;3.50;;
7659;SDS011;3872;47.902;8.162;2023-09-30T06:22:52;7.73;;;2.60;;
7659;SDS011;3872;47.902;8.162;2023-09-30T06:25:19;9.60;;;2.90;;
7659;SDS011;3872;47.902;8.162;2023-09-30T06:27:48;11.13;;;3.00;;
7659;SDS011;3872;47.902;8.162;2023-09-30T06:30:15;8.10;;;3.30;;
7659;SDS011;3872;47.902;8.162;2023-09-30T06:32:44;14.03;;;3.67;;
7659;SDS011;3872;47.902;8.162;2023-09-30T06:35:11;12.13;;;3.20;;
7659;SDS011;3872;47.902;8.162;2023-09-30T06:37:38;13.00;;;2.70;;
7659;SDS011;3872;47.902;8.162;2023-09-30T06:40:05;9.60;;;2.40;;
7659;SDS011;3872;47.902;8.162;2023-09-30T06:42:33;11.60;;;2.97;;
7659;SDS011;3872;47.902;8.162;2023-09-30T06:45:00;11.70;;;3.57;;
7659;SDS011;3872;47.902;8.162;2023-09-30T06:47:27;8.83;;;3.10;;
7659;SDS011;3872;47.902;8.162;2023-09-30T06:49:59;11.80;;;3.43;;
7659;SDS011;3872;47.902;8.162;2023-09-30T06:52:32;9.33;;;3.60;;
7659;SDS011;3872;47.902;8.162;2023-09-30T06:54:59;12.83;;;3.73;;
7659;SDS011;3872;47.902;8.162;2023-09-30T06:57:25;10.20;;;3.30;;
7659;SDS011;3872;47.902;8.162;2023-09-30T06:59:52;9.10;;;2.57;;
7659;SDS011;3872;47.902;8.162;2023-09-30T07:02:18;9.70;;;3.13;;
7659;SDS011;3872;47.902;8.162;2023-09-30T07:04:45;19.50;;;3.70;;
7659;SDS011;3872;47.902;8.162;2023-09-30T07:07:13;13.80;;;4.20;;
7659;SDS011;3872;47.902;8.162;2023-09-30T07:09:41;11.30;;;3.00;;
7659;SDS011;3872;47.902;8.162;2023-09-30T07:12:08;12.90;;;3.50;;
7659;SDS011;3872;47.902;8.162;2023-09-30T07:14:35;16.50;;;4.10;;
7659;SDS011;3872;47.902;8.162;2023-09-30T07:17:01;11.67;;;2.80;;
7659;SDS011;3872;47.902;8.162;2023-09-30T07:19:29;14.77;;;4.27;;
7659;SDS011;3872;47.902;8.162;2023-09-30T07:21:56;13.20;;;3.73;;
7659;SDS011;3872;47.902;8.162;2023-09-30T07:24:24;10.33;;;3.07;;
7659;SDS011;3872;47.902;8.162;2023-09-30T07:26:50;11.87;;;3.83;;
7659;SDS011;3872;47.902;8.162;2023-09-30T07:29:17;9.97;;;2.77;;
7659;SDS011;3872;47.902;8.162;2023-09-30T07:31:43;9.27;;;3.03;;
7659;SDS011;3872;47.902;8.162;2023-09-30T07:34:10;11.23;;;3.23;;
7659;SDS011;3872;47.902;8.162;2023-09-30T07:36:36;10.07;;;3.80;;
7659;SDS011;3872;47.902;8.162;2023-09-30T07:39:03;11.33;;;3.80;;
7659;SDS011;3872;47.902;8.162;2023-09-30T07:41:35;10.70;;;3.17;;
7659;SDS011;3872;47.902;8.162;2023-09-30T07:44:02;11.00;;;3.90;;
7659;SDS011;3872;47.902;8.162;2023-09-30T07:46:30;12.90;;;3.90;;
7659;SDS011;3872;47.902;8.162;2023-09-30T07:48:56;10.97;;;4.30;;
7659;SDS011;3872;47.902;8.162;2023-09-30T07:51:25;11.50;;;3.53;;
7659;SDS011;3872;47.902;8.162;2023-09-30T07:53:51;17.30;;;3.73;;
7659;SDS011;3872;47.902;8.162;2023-09-30T07:56:18;9.30;;;3.10;;
7659;SDS011;3872;47.902;8.162;2023-09-30T07:58:46;14.43;;;4.30;;
7659;SDS011;3872;47.902;8.162;2023-09-30T08:01:12;14.57;;;3.60;;
7659;SDS011;3872;47.902;8.162;2023-09-30T08:03:40;16.43;;;3.67;;
7659;SDS011;3872;47.902;8.162;2023-09-30T08:06:06;21.07;;;4.67;;
7659;SDS011;3872;47.902;8.162;2023-09-30T08:08:34;12.10;;;4.07;;
7659;SDS011;3872;47.902;8.162;2023-09-30T08:11:01;17.23;;;4.53;;
7659;SDS011;3872;47.902;8.162;2023-09-30T08:13:27;12.07;;;4.27;;
7659;SDS011;3872;47.902;8.162;2023-09-30T08:15:56;13.23;;;4.07;;
7659;SDS011;3872;47.902;8.162;2023-09-30T08:18:22;13.47;;;3.27;;
7659;SDS011;3872;47.902;8.162;2023-09-30T08:20:49;10.57;;;3.73;;
7659;SDS011;3872;47.902;8.162;2023-09-30T08:23:15;19.13;;;4.07;;
7659;SDS011;3872;47.902;8.162;2023-09-30T08:25:42;10.97;;;3.80;;
7659;SDS011;3872;47.902;8.162;2023-09-30T08:28:09;13.03;;;3.90;;
7659;SDS011;3872;47.902;8.162;2023-09-30T08:30:35;12.83;;;3.87;;
7659;SDS011;3872;47.902;8.162;2023-09-30T08:33:04;16.40;;;4.20;;
7659;SDS011;3872;47.902;8.162;2023-09-30T08:35:34;15.03;;;4.10;;
7659;SDS011;3872;47.902;8.162;2023-09-30T08:38:01;17.23;;;4.60;;
7659;SDS011;3872;47.902;8.162;2023-09-30T08:40:29;10.83;;;4.50;;
7659;SDS011;3872;47.902;8.162;2023-09-30T08:42:56;14.70;;;5.70;;
7659;SDS011;3872;47.902;8.162;2023-09-30T08:45:22;15.80;;;4.97;;
7659;SDS011;3872;47.902;8.162;2023-09-30T08:47:49;14.93;;;4.87;;
7659;SDS011;3872;47.902;8.162;2023-09-30T08:50:18;12.77;;;3.60;;
7659;SDS011;3872;47.902;8.162;2023-09-30T08:52:45;17.20;;;4.87;;
7659;SDS011;3872;47.902;8.162;2023-09-30T08:55:12;16.07;;;4.27;;
7659;SDS011;3872;47.902;8.162;2023-09-30T08:57:39;14.43;;;4.67;;
7659;SDS011;3872;47.902;8.162;2023-09-30T09:00:08;17.07;;;4.63;;
7659;SDS011;3872;47.902;8.162;2023-09-30T09:02:37;14.33;;;4.03;;
7659;SDS011;3872;47.902;8.162;2023-09-30T09:05:04;16.17;;;4.30;;
7659;SDS011;3872;47.902;8.162;2023-09-30T09:07:33;12.70;;;3.80;;
7659;SDS011;3872;47.902;8.162;2023-09-30T09:10:04;19.17;;;4.10;;
7659;SDS011;3872;47.902;8.162;2023-09-30T09:12:33;18.10;;;4.90;;
7659;SDS011;3872;47.902;8.162;2023-09-30T09:15:00;13.50;;;4.20;;
7659;SDS011;3872;47.902;8.162;2023-09-30T09:17:39;10.07;;;3.90;;
7659;SDS011;3872;47.902;8.162;2023-09-30T09:20:08;20.27;;;5.43;;
7659;SDS011;3872;47.902;8.162;2023-09-30T09:22:41;12.70;;;4.40;;
7659;SDS011;3872;47.902;8.162;2023-09-30T09:25:08;19.40;;;5.53;;
7659;SDS011;3872;47.902;8.162;2023-09-30T09:27:36;16.33;;;5.17;;
7659;SDS011;3872;47.902;8.162;2023-09-30T09:30:15;16.87;;;4.80;;
7659;SDS011;3872;47.902;8.162;2023-09-30T09:32:52;14.77;;;4.77;;
7659;SDS011;3872;47.902;8.162;2023-09-30T09:35:26;18.97;;;5.17;;
7659;SDS011;3872;47.902;8.162;2023-09-30T09:37:57;11.77;;;3.93;;
7659;SDS011;3872;47.902;8.162;2023-09-30T09:40:25;13.27;;;4.50;;
7659;SDS011;3872;47.902;8.162;2023-09-30T09:42:53;19.27;;;4.90;;
7659;SDS011;3872;47.902;8.162;2023-09-30T09:45:21;17.90;;;5.80;;
7659;SDS011;3872;47.902;8.162;2023-09-30T09:47:49;16.60;;;5.90;;
7659;SDS011;3872;47.902;8.162;2023-09-30T09:50:17;14.77;;;4.50;;
7659;SDS011;3872;47.902;8.162;2023-09-30T09:52:45;20.63;;;5.00;;
7659;SDS011;3872;47.902;8.162;2023-09-30T09:55:16;16.40;;;4.83;;
7659;SDS011;3872;47.902;8.162;2023-09-30T09:57:43;15.40;;;5.03;;
7659;SDS011;3872;47.902;8.162;2023-09-30T10:00:12;12.67;;;4.10;;
7659;SDS011;3872;47.902;8.162;2023-09-30T10:02:40;14.17;;;4.70;;
7659;SDS011;3872;47.902;8.162;2023-09-30T10:05:07;15.77;;;4.63;;
7659;SDS011;3872;47.902;8.162;2023-09-30T10:07:38;16.80;;;5.03;;
7659;SDS011;3872;47.902;8.162;2023-09-30T10:10:11;15.90;;;4.80;;
7659;SDS011;3872;47.902;8.162;2023-09-30T10:12:41;13.47;;;4.77;;
7659;SDS011;3872;47.902;8.162;2023-09-30T10:18:09;12.90;;;3.90;;
7659;SDS011;3872;47.902;8.162;2023-09-30T10:20:37;16.20;;;5.10;;
7659;SDS011;3872;47.902;8.162;2023-09-30T10:23:18;13.63;;;4.27;;
7659;SDS011;3872;47.902;8.162;2023-09-30T10:25:51;13.77;;;4.90;;
7659;SDS011;3872;47.902;8.162;2023-09-30T10:28:33;13.63;;;4.13;;
7659;SDS011;3872;47.902;8.162;2023-09-30T10:31:08;14.90;;;4.70;;
7659;SDS011;3872;47.902;8.162;2023-09-30T10:33:35;18.60;;;5.53;;
7659;SDS011;3872;47.902;8.162;2023-09-30T10:36:02;12.20;;;4.30;;
7659;SDS011;3872;47.902;8.162;2023-09-30T10:38:36;13.83;;;4.50;;
7659;SDS011;3872;47.902;8.162;2023-09-30T10:41:09;14.37;;;4.53;;
7659;SDS011;3872;47.902;8.162;2023-09-30T10:43:39;13.27;;;4.20;;
7659;SDS011;3872;47.902;8.162;2023-09-30T10:48:56;20.80;;;5.13;;
7659;SDS011;3872;47.902;8.162;2023-09-30T10:51:24;15.93;;;5.40;;
7659;SDS011;3872;47.902;8.162;2023-09-30T10:53:51;15.73;;;4.40;;
7659;SDS011;3872;47.902;8.162;2023-09-30T10:56:21;18.70;;;5.30;;
7659;SDS011;3872;47.902;8.162;2023-09-30T10:58:50;16.97;;;5.83;;
7659;SDS011;3872;47.902;8.162;2023-09-30T11:01:18;15.77;;;4.70;;
7659;SDS011;3872;47.902;8.162;2023-09-30T11:03:47;15.90;;;5.13;;
7659;SDS011;3872;47.902;8.162;2023-09-30T11:06:16;12.00;;;4.53;;
7659;SDS011;3872;47.902;8.162;2023-09-30T11:08:46;17.37;;;4.40;;
7659;SDS011;3872;47.902;8.162;2023-09-30T11:11:18;19.53;;;4.03;;
7659;SDS011;3872;47.902;8.162;2023-09-30T11:13:45;11.53;;;4.20;;
7659;SDS011;3872;47.902;8.162;2023-09-30T11:16:13;14.27;;;4.93;;
7659;SDS011;3872;47.902;8.162;2023-09-30T11:18:40;14.07;;;4.03;;
7659;SDS011;3872;47.902;8.162;2023-09-30T11:21:08;13.97;;;4.60;;
7659;SDS011;3872;47.902;8.162;2023-09-30T11:23:35;12.90;;;4.63;;
7659;SDS011;3872;47.902;8.162;2023-09-30T11:26:03;10.70;;;3.70;;
7659;SDS011;3872;47.902;8.162;2023-09-30T11:28:37;14.90;;;5.10;;
7659;SDS011;3872;47.902;8.162;2023-09-30T11:31:07;14.53;;;4.67;;
7659;SDS011;3872;47.902;8.162;2023-09-30T11:33:48;12.00;;;4.20;;
7659;SDS011;3872;47.902;8.162;2023-09-30T11:36:18;12.73;;;4.30;;
7659;SDS011;3872;47.902;8.162;2023-09-30T11:38:46;15.73;;;5.20;;
7659;SDS011;3872;47.902;8.162;2023-09-30T11:41:14;17.40;;;5.10;;
7659;SDS011;3872;47.902;8.162;2023-09-30T11:43:57;18.30;;;5.13;;
7659;SDS011;3872;47.902;8.162;2023-09-30T11:46:25;15.37;;;5.30;;
7659;SDS011;3872;47.902;8.162;2023-09-30T11:48:57;14.07;;;4.43;;
7659;SDS011;3872;47.902;8.162;2023-09-30T11:51:26;13.13;;;4.87;;
7659;SDS011;3872;47.902;8.162;2023-09-30T11:53:53;14.40;;;4.70;;
7659;SDS011;3872;47.902;8.162;2023-09-30T11:56:21;15.80;;;5.40;;
7659;SDS011;3872;47.902;8.162;2023-09-30T11:58:53;17.07;;;5.53;;
7659;SDS011;3872;47.902;8.162;2023-09-30T12:01:19;13.87;;;4.50;;
7659;SDS011;3872;47.902;8.162;2023-09-30T12:03:47;15.30;;;4.83;;
7659;SDS011;3872;47.902;8.162;2023-09-30T12:06:15;14.20;;;5.30;;
7659;SDS011;3872;47.902;8.162;2023-09-30T12:08:42;18.93;;;5.37;;
7659;SDS011;3872;47.902;8.162;2023-09-30T12:11:08;18.70;;;4.90;;
7659;SDS011;3872;47.902;8.162;2023-09-30T12:13:38;13.03;;;4.50;;
7659;SDS011;3872;47.902;8.162;2023-09-30T12:16:04;16.50;;;5.03;;
7659;SDS011;3872;47.902;8.162;2023-09-30T12:18:31;13.77;;;4.57;;
7659;SDS011;3872;47.902;8.162;2023-09-30T12:20:58;16.53;;;4.93;;
7659;SDS011;3872;47.902;8.162;2023-09-30T12:23:26;14.17;;;4.73;;
7659;SDS011;3872;47.902;8.162;2023-09-30T12:25:53;15.23;;;5.40;;
7659;SDS011;3872;47.902;8.162;2023-09-30T12:28:19;14.03;;;4.43;;
7659;SDS011;3872;47.902;8.162;2023-09-30T12:30:46;15.00;;;5.30;;
7659;SDS011;3872;47.902;8.162;2023-09-30T12:33:13;14.90;;;4.90;;
7659;SDS011;3872;47.902;8.162;2023-09-30T12:35:39;22.90;;;6.03;;
7659;SDS011;3872;47.902;8.162;2023-09-30T12:38:06;18.40;;;6.70;;
7659;SDS011;3872;47.902;8.162;2023-09-30T12:40:34;15.97;;;5.17;;
7659;SDS011;3872;47.902;8.162;2023-09-30T12:43:00;15.60;;;4.90;;
7659;SDS011;3872;47.902;8.162;2023-09-30T12:45:28;17.30;;;5.70;;
7659;SDS011;3872;47.902;8.162;2023-09-30T12:47:55;15.40;;;5.73;;
7659;SDS011;3872;47.902;8.162;2023-09-30T12:50:22;15.13;;;5.60;;
7659;SDS011;3872;47.902;8.162;2023-09-30T12:52:48;14.57;;;5.47;;
7659;SDS011;3872;47.902;8.162;2023-09-30T12:55:15;16.37;;;4.90;;
7659;SDS011;3872;47.902;8.162;2023-09-30T12:57:43;18.37;;;4.70;;
7659;SDS011;3872;47.902;8.162;2023-09-30T13:00:10;16.53;;;5.27;;
7659;SDS011;3872;47.902;8.162;2023-09-30T13:02:37;14.07;;;5.00;;
7659;SDS011;3872;47.902;8.162;2023-09-30T13:05:04;12.93;;;5.00;;
7659;SDS011;3872;47.902;8.162;2023-09-30T13:07:32;15.10;;;5.30;;
7659;SDS011;3872;47.902;8.162;2023-09-30T13:09:59;18.70;;;5.63;;
7659;SDS011;3872;47.902;8.162;2023-09-30T13:12:26;15.40;;;4.70;;
7659;SDS011;3872;47.902;8.162;2023-09-30T13:14:56;14.37;;;4.90;;
7659;SDS011;3872;47.902;8.162;2023-09-30T13:17:22;16.07;;;5.93;;
7659;SDS011;3872;47.902;8.162;2023-09-30T13:19:49;15.80;;;5.00;;
7659;SDS011;3872;47.902;8.162;2023-09-30T13:22:16;19.97;;;5.17;;
7659;SDS011;3872;47.902;8.162;2023-09-30T13:24:43;15.13;;;4.80;;
7659;SDS011;3872;47.902;8.162;2023-09-30T13:27:09;15.97;;;6.03;;
7659;SDS011;3872;47.902;8.162;2023-09-30T13:29:36;15.10;;;5.57;;
7659;SDS011;3872;47.902;8.162;2023-09-30T13:32:04;15.47;;;4.73;;
7659;SDS011;3872;47.902;8.162;2023-09-30T13:34:31;16.67;;;4.97;;
7659;SDS011;3872;47.902;8.162;2023-09-30T13:36:57;14.40;;;5.70;;
7659;SDS011;3872;47.902;8.162;2023-09-30T13:39:24;15.90;;;4.40;;
7659;SDS011;3872;47.902;8.162;2023-09-30T13:41:50;17.13;;;4.83;;
7659;SDS011;3872;47.902;8.162;2023-09-30T13:44:22;18.10;;;5.43;;
7659;SDS011;3872;47.902;8.162;2023-09-30T13:46:49;20.03;;;5.20;;
7659;SDS011;3872;47.902;8.162;2023-09-30T13:49:17;13.90;;;4.70;;
7659;SDS011;3872;47.902;8.162;2023-09-30T13:51:43;15.90;;;4.43;;
7659;SDS011;3872;47.902;8.162;2023-09-30T13:54:14;13.97;;;5.37;;
7659;SDS011;3872;47.902;8.162;2023-09-30T13:56:41;18.30;;;5.10;;
7659;SDS011;3872;47.902;8.162;2023-09-30T13:59:09;15.17;;;4.93;;
7659;SDS011;3872;47.902;8.162;2023-09-30T14:01:36;16.00;;;4.77;;
7659;SDS011;3872;47.902;8.162;2023-09-30T14:04:06;21.97;;;5.37;;
7659;SDS011;3872;47.902;8.162;2023-09-30T14:06:34;12.30;;;4.30;;
7659;SDS011;3872;47.902;8.162;2023-09-30T14:09:02;22.60;;;5.30;;
7659;SDS011;3872;47.902;8.162;2023-09-30T14:11:31;14.40;;;4.73;;
7659;SDS011;3872;47.902;8.162;2023-09-30T14:13:58;14.60;;;5.30;;
7659;SDS011;3872;47.902;8.162;2023-09-30T14:16:25;14.47;;;4.50;;
7659;SDS011;3872;47.902;8.162;2023-09-30T14:18:52;23.03;;;4.90;;
7659;SDS011;3872;47.902;8.162;2023-09-30T14:21:18;12.40;;;4.50;;
7659;SDS011;3872;47.902;8.162;2023-09-30T14:23:47;48.27;;;7.50;;
7659;SDS011;3872;47.902;8.162;2023-09-30T14:26:13;15.60;;;4.77;;
7659;SDS011;3872;47.902;8.162;2023-09-30T14:28:40;11.60;;;3.97;;
7659;SDS011;3872;47.902;8.162;2023-09-30T14:31:07;18.10;;;5.23;;
7659;SDS011;3872;47.902;8.162;2023-09-30T14:33:33;10.60;;;4.07;;
7659;SDS011;3872;47.902;8.162;2023-09-30T14:36:00;13.47;;;5.20;;
7659;SDS011;3872;47.902;8.162;2023-09-30T14:38:26;16.57;;;5.33;;
7659;SDS011;3872;47.902;8.162;2023-09-30T14:40:54;16.73;;;5.23;;
7659;SDS011;3872;47.902;8.162;2023-09-30T14:43:21;17.77;;;4.90;;
7659;SDS011;3872;47.902;8.162;2023-09-30T14:45:47;14.97;;;5.27;;
7659;SDS011;3872;47.902;8.162;2023-09-30T14:48:14;18.20;;;5.10;;
7659;SDS011;3872;47.902;8.162;2023-09-30T14:50:47;13.93;;;5.13;;
7659;SDS011;3872;47.902;8.162;2023-09-30T14:53:14;14.83;;;5.27;;
7659;SDS011;3872;47.902;8.162;2023-09-30T14:55:41;16.63;;;5.23;;
7659;SDS011;3872;47.902;8.162;2023-09-30T14:58:09;16.50;;;5.20;;
7659;SDS011;3872;47.902;8.162;2023-09-30T15:00:35;14.10;;;4.87;;
7659;SDS011;3872;47.902;8.162;2023-09-30T15:03:02;16.17;;;4.67;;
7659;SDS011;3872;47.902;8.162;2023-09-30T15:05:30;13.33;;;4.80;;
7659;SDS011;3872;47.902;8.162;2023-09-30T15:07:57;16.03;;;4.53;;
7659;SDS011;3872;47.902;8.162;2023-09-30T15:10:24;14.27;;;5.30;;
7659;SDS011;3872;47.902;8.162;2023-09-30T15:12:51;11.23;;;4.60;;
7659;SDS011;3872;47.902;8.162;2023-09-30T15:15:19;19.23;;;5.63;;